sensor_id;sensor_type;location;lat;lon;timestamp;temperature;humidity
25332;DHT22;13284;52.748;13.452;2022-07-29T00:00:28;15.20;99.90
25332;DHT22;13284;52.748;13.452;2022-07-29T00:02:54;15.10;99.90
25332;DHT22;13284;52.748;13.452;2022-07-29T00:05:19;15.10;99.90
25332;DHT22;13284;52.748;13.452;2022-07-29T00:07:45;15.10;99.90
25332;DHT22;13284;52.748;13.452;2022-07-29T00:10:10;15.20;99.90
25332;DHT22;13284;52.748;13.452;2022-07-29T00:12:36;15.20;99.90
25332;DHT22;13284;52.748;13.452;2022-07-29T00:15:02;15.10;99.90
25332;DHT22;13284;52.748;13.452;2022-07-29T00:17:28;15.00;99.90
25332;DHT22;13284;52.748;13.452;2022-07-29T00:19:53;15.10;99.90
25332;DHT22;13284;52.748;13.452;2022-07-29T00:22:19;15.00;99.90
25332;DHT22;13284;52.748;13.452;2022-07-29T00:24:47;15.00;99.90
25332;DHT22;13284;52.748;13.452;2022-07-29T00:27:12;14.90;99.90
25332;DHT22;13284;52.748;13.452;2022-07-29T00:29:38;14.90;99.90
25332;DHT22;13284;52.748;13.452;2022-07-29T00:32:04;14.80;99.90
25332;DHT22;13284;52.748;13.452;2022-07-29T00:34:30;14.80;99.90
25332;DHT22;13284;52.748;13.452;2022-07-29T00:37:14;14.80;99.90
25332;DHT22;13284;52.748;13.452;2022-07-29T00:39:39;14.70;99.90
25332;DHT22;13284;52.748;13.452;2022-07-29T00:42:05;14.70;99.90
25332;DHT22;13284;52.748;13.452;2022-07-29T00:44:35;14.70;99.90
25332;DHT22;13284;52.748;13.452;2022-07-29T00:47:01;14.70;99.90
25332;DHT22;13284;52.748;13.452;2022-07-29T00:49:26;14.70;99.90
25332;DHT22;13284;52.748;13.452;2022-07-29T00:51:52;14.70;99.90
25332;DHT22;13284;52.748;13.452;2022-07-29T00:54:17;14.60;99.90
25332;DHT22;13284;52.748;13.452;2022-07-29T00:56:43;14.60;99.90
25332;DHT22;13284;52.748;13.452;2022-07-29T00:59:09;14.60;99.90
25332;DHT22;13284;52.748;13.452;2022-07-29T01:01:34;14.60;99.90
25332;DHT22;13284;52.748;13.452;2022-07-29T01:04:00;14.50;99.90
25332;DHT22;13284;52.748;13.452;2022-07-29T01:06:57;14.50;99.90
25332;DHT22;13284;52.748;13.452;2022-07-29T01:09:23;14.50;99.90
25332;DHT22;13284;52.748;13.452;2022-07-29T01:11:50;14.40;99.90
25332;DHT22;13284;52.748;13.452;2022-07-29T01:14:16;14.40;99.90
25332;DHT22;13284;52.748;13.452;2022-07-29T01:16:52;14.40;99.90
25332;DHT22;13284;52.748;13.452;2022-07-29T01:25:36;14.40;99.90
25332;DHT22;13284;52.748;13.452;2022-07-29T01:30:40;14.30;99.90
25332;DHT22;13284;52.748;13.452;2022-07-29T01:33:10;14.30;99.90
25332;DHT22;13284;52.748;13.452;2022-07-29T01:35:39;14.30;99.90
25332;DHT22;13284;52.748;13.452;2022-07-29T01:41:02;14.20;99.90
25332;DHT22;13284;52.748;13.452;2022-07-29T01:43:49;14.10;99.90
25332;DHT22;13284;52.748;13.452;2022-07-29T01:46:28;14.20;99.90
25332;DHT22;13284;52.748;13.452;2022-07-29T01:49:21;14.10;99.90
25332;DHT22;13284;52.748;13.452;2022-07-29T01:52:08;14.10;99.90
25332;DHT22;13284;52.748;13.452;2022-07-29T01:54:42;14.10;99.90
25332;DHT22;13284;52.748;13.452;2022-07-29T01:57:13;14.10;99.90
25332;DHT22;13284;52.748;13.452;2022-07-29T01:59:40;14.00;99.90
25332;DHT22;13284;52.748;13.452;2022-07-29T02:02:08;14.00;99.90
25332;DHT22;13284;52.748;13.452;2022-07-29T02:04:36;14.00;99.90
25332;DHT22;13284;52.748;13.452;2022-07-29T02:07:04;14.00;99.90
25332;DHT22;13284;52.748;13.452;2022-07-29T02:09:32;13.90;99.90
25332;DHT22;13284;52.748;13.452;2022-07-29T02:11:59;13.90;99.90
25332;DHT22;13284;52.748;13.452;2022-07-29T02:14:28;13.90;99.90
25332;DHT22;13284;52.748;13.452;2022-07-29T02:16:56;13.90;99.90
25332;DHT22;13284;52.748;13.452;2022-07-29T02:19:25;13.90;99.90
25332;DHT22;13284;52.748;13.452;2022-07-29T02:21:54;13.90;99.90
25332;DHT22;13284;52.748;13.452;2022-07-29T02:24:22;13.80;99.90
25332;DHT22;13284;52.748;13.452;2022-07-29T02:26:49;13.90;99.90
25332;DHT22;13284;52.748;13.452;2022-07-29T02:29:16;13.90;99.90
25332;DHT22;13284;52.748;13.452;2022-07-29T02:31:44;13.90;99.90
25332;DHT22;13284;52.748;13.452;2022-07-29T02:34:12;13.90;99.90
25332;DHT22;13284;52.748;13.452;2022-07-29T02:36:40;13.90;99.90
25332;DHT22;13284;52.748;13.452;2022-07-29T02:39:08;13.90;99.90
25332;DHT22;13284;52.748;13.452;2022-07-29T02:41:42;13.90;99.90
25332;DHT22;13284;52.748;13.452;2022-07-29T02:44:17;13.90;99.90
25332;DHT22;13284;52.748;13.452;2022-07-29T02:47:04;13.90;99.90
25332;DHT22;13284;52.748;13.452;2022-07-29T02:49:41;13.90;99.90
25332;DHT22;13284;52.748;13.452;2022-07-29T02:52:17;13.90;99.90
25332;DHT22;13284;52.748;13.452;2022-07-29T02:55:10;13.90;99.90
25332;DHT22;13284;52.748;13.452;2022-07-29T02:57:55;13.90;99.90
25332;DHT22;13284;52.748;13.452;2022-07-29T03:00:26;13.90;99.90
25332;DHT22;13284;52.748;13.452;2022-07-29T03:02:54;13.80;99.90
25332;DHT22;13284;52.748;13.452;2022-07-29T03:05:22;13.90;99.90
25332;DHT22;13284;52.748;13.452;2022-07-29T03:07:53;13.90;99.90
25332;DHT22;13284;52.748;13.452;2022-07-29T03:10:20;13.80;99.90
25332;DHT22;13284;52.748;13.452;2022-07-29T03:12:47;13.90;99.90
25332;DHT22;13284;52.748;13.452;2022-07-29T03:15:13;13.90;99.90
25332;DHT22;13284;52.748;13.452;2022-07-29T03:17:39;13.90;99.90
25332;DHT22;13284;52.748;13.452;2022-07-29T03:20:06;13.90;99.90
25332;DHT22;13284;52.748;13.452;2022-07-29T03:22:33;13.90;99.90
25332;DHT22;13284;52.748;13.452;2022-07-29T03:25:07;13.90;99.90
25332;DHT22;13284;52.748;13.452;2022-07-29T03:27:34;13.90;99.90
25332;DHT22;13284;52.748;13.452;2022-07-29T03:29:59;13.90;99.90
25332;DHT22;13284;52.748;13.452;2022-07-29T03:32:25;13.90;99.90
25332;DHT22;13284;52.748;13.452;2022-07-29T03:34:50;13.90;99.90
25332;DHT22;13284;52.748;13.452;2022-07-29T03:37:16;13.90;99.90
25332;DHT22;13284;52.748;13.452;2022-07-29T03:39:43;13.90;99.90
25332;DHT22;13284;52.748;13.452;2022-07-29T03:42:12;13.90;99.90
25332;DHT22;13284;52.748;13.452;2022-07-29T03:44:41;13.90;99.90
25332;DHT22;13284;52.748;13.452;2022-07-29T03:47:09;13.90;99.90
25332;DHT22;13284;52.748;13.452;2022-07-29T03:49:36;13.90;99.90
25332;DHT22;13284;52.748;13.452;2022-07-29T03:52:03;13.90;99.90
25332;DHT22;13284;52.748;13.452;2022-07-29T03:54:29;13.90;99.90
25332;DHT22;13284;52.748;13.452;2022-07-29T03:56:58;13.90;99.90
25332;DHT22;13284;52.748;13.452;2022-07-29T03:59:25;13.90;99.90
25332;DHT22;13284;52.748;13.452;2022-07-29T04:01:51;13.90;99.90
25332;DHT22;13284;52.748;13.452;2022-07-29T04:04:18;13.90;99.90
25332;DHT22;13284;52.748;13.452;2022-07-29T04:06:46;13.90;99.90
25332;DHT22;13284;52.748;13.452;2022-07-29T04:09:11;13.90;99.90
25332;DHT22;13284;52.748;13.452;2022-07-29T04:11:41;13.90;99.90
25332;DHT22;13284;52.748;13.452;2022-07-29T04:14:07;13.90;99.90
25332;DHT22;13284;52.748;13.452;2022-07-29T04:16:32;14.00;99.90
25332;DHT22;13284;52.748;13.452;2022-07-29T04:18:58;14.00;99.90
25332;DHT22;13284;52.748;13.452;2022-07-29T04:21:24;14.00;99.90
25332;DHT22;13284;52.748;13.452;2022-07-29T04:23:50;14.10;99.90
25332;DHT22;13284;52.748;13.452;2022-07-29T04:26:19;14.10;99.90
25332;DHT22;13284;52.748;13.452;2022-07-29T04:28:45;14.20;99.90
25332;DHT22;13284;52.748;13.452;2022-07-29T04:31:12;14.10;99.90
25332;DHT22;13284;52.748;13.452;2022-07-29T04:33:38;14.10;99.90
25332;DHT22;13284;52.748;13.452;2022-07-29T04:36:03;14.10;99.90
25332;DHT22;13284;52.748;13.452;2022-07-29T04:38:29;14.20;99.90
25332;DHT22;13284;52.748;13.452;2022-07-29T04:40:55;14.20;99.90
25332;DHT22;13284;52.748;13.452;2022-07-29T04:43:20;14.20;99.90
25332;DHT22;13284;52.748;13.452;2022-07-29T04:45:46;14.30;99.90
25332;DHT22;13284;52.748;13.452;2022-07-29T04:48:11;14.20;99.90
25332;DHT22;13284;52.748;13.452;2022-07-29T04:50:40;14.20;99.90
25332;DHT22;13284;52.748;13.452;2022-07-29T04:53:06;14.30;99.90
25332;DHT22;13284;52.748;13.452;2022-07-29T04:55:33;14.30;99.90
25332;DHT22;13284;52.748;13.452;2022-07-29T04:57:59;14.30;99.90
25332;DHT22;13284;52.748;13.452;2022-07-29T05:00:24;14.30;99.90
25332;DHT22;13284;52.748;13.452;2022-07-29T05:02:50;14.40;99.90
25332;DHT22;13284;52.748;13.452;2022-07-29T05:05:15;14.40;99.90
25332;DHT22;13284;52.748;13.452;2022-07-29T05:07:41;14.40;99.90
25332;DHT22;13284;52.748;13.452;2022-07-29T05:10:07;14.40;99.90
25332;DHT22;13284;52.748;13.452;2022-07-29T05:12:33;14.50;99.90
25332;DHT22;13284;52.748;13.452;2022-07-29T05:14:59;14.50;99.90
25332;DHT22;13284;52.748;13.452;2022-07-29T05:17:24;14.60;99.90
25332;DHT22;13284;52.748;13.452;2022-07-29T05:19:50;14.70;99.90
25332;DHT22;13284;52.748;13.452;2022-07-29T05:22:18;14.70;99.90
25332;DHT22;13284;52.748;13.452;2022-07-29T05:24:43;14.70;99.90
25332;DHT22;13284;52.748;13.452;2022-07-29T05:27:09;15.00;99.90
25332;DHT22;13284;52.748;13.452;2022-07-29T05:29:35;15.20;99.90
25332;DHT22;13284;52.748;13.452;2022-07-29T05:32:00;15.60;99.90
25332;DHT22;13284;52.748;13.452;2022-07-29T05:34:26;16.10;99.90
25332;DHT22;13284;52.748;13.452;2022-07-29T05:36:51;16.40;99.90
25332;DHT22;13284;52.748;13.452;2022-07-29T05:39:17;16.70;99.90
25332;DHT22;13284;52.748;13.452;2022-07-29T05:41:42;17.10;99.90
25332;DHT22;13284;52.748;13.452;2022-07-29T05:44:08;17.40;99.90
25332;DHT22;13284;52.748;13.452;2022-07-29T05:46:34;17.60;99.90
25332;DHT22;13284;52.748;13.452;2022-07-29T05:48:59;17.50;99.90
25332;DHT22;13284;52.748;13.452;2022-07-29T05:51:26;17.20;99.90
25332;DHT22;13284;52.748;13.452;2022-07-29T05:53:51;16.90;99.90
25332;DHT22;13284;52.748;13.452;2022-07-29T05:56:17;16.90;99.90
25332;DHT22;13284;52.748;13.452;2022-07-29T05:58:42;17.00;99.90
25332;DHT22;13284;52.748;13.452;2022-07-29T06:01:08;17.20;99.90
25332;DHT22;13284;52.748;13.452;2022-07-29T06:03:34;17.20;99.90
25332;DHT22;13284;52.748;13.452;2022-07-29T06:05:59;17.20;99.90
25332;DHT22;13284;52.748;13.452;2022-07-29T06:08:25;17.10;99.90
25332;DHT22;13284;52.748;13.452;2022-07-29T06:10:51;17.20;99.90
25332;DHT22;13284;52.748;13.452;2022-07-29T06:13:16;17.00;99.90
25332;DHT22;13284;52.748;13.452;2022-07-29T06:15:42;17.10;99.90
25332;DHT22;13284;52.748;13.452;2022-07-29T06:18:08;17.20;99.90
25332;DHT22;13284;52.748;13.452;2022-07-29T06:20:35;17.30;99.90
25332;DHT22;13284;52.748;13.452;2022-07-29T06:23:01;17.40;99.90
25332;DHT22;13284;52.748;13.452;2022-07-29T06:25:30;17.50;99.90
25332;DHT22;13284;52.748;13.452;2022-07-29T06:27:57;17.60;99.90
25332;DHT22;13284;52.748;13.452;2022-07-29T06:30:23;17.70;99.90
25332;DHT22;13284;52.748;13.452;2022-07-29T06:32:48;17.70;99.90
25332;DHT22;13284;52.748;13.452;2022-07-29T06:35:14;18.00;99.90
25332;DHT22;13284;52.748;13.452;2022-07-29T06:37:40;18.20;99.90
25332;DHT22;13284;52.748;13.452;2022-07-29T06:40:06;18.30;99.90
25332;DHT22;13284;52.748;13.452;2022-07-29T06:42:50;18.30;99.90
25332;DHT22;13284;52.748;13.452;2022-07-29T06:45:15;18.30;99.90
25332;DHT22;13284;52.748;13.452;2022-07-29T06:47:41;18.30;99.90
25332;DHT22;13284;52.748;13.452;2022-07-29T06:50:07;18.40;99.90
25332;DHT22;13284;52.748;13.452;2022-07-29T06:52:36;18.30;99.90
25332;DHT22;13284;52.748;13.452;2022-07-29T06:55:02;18.50;99.90
25332;DHT22;13284;52.748;13.452;2022-07-29T06:57:27;18.60;99.90
25332;DHT22;13284;52.748;13.452;2022-07-29T06:59:53;18.80;99.90
25332;DHT22;13284;52.748;13.452;2022-07-29T07:02:21;18.80;99.90
25332;DHT22;13284;52.748;13.452;2022-07-29T07:04:46;18.80;99.90
25332;DHT22;13284;52.748;13.452;2022-07-29T07:07:12;18.90;99.90
25332;DHT22;13284;52.748;13.452;2022-07-29T07:09:37;19.20;99.90
25332;DHT22;13284;52.748;13.452;2022-07-29T07:12:03;19.20;99.90
25332;DHT22;13284;52.748;13.452;2022-07-29T07:14:29;19.30;99.90
25332;DHT22;13284;52.748;13.452;2022-07-29T07:16:54;19.50;99.90
25332;DHT22;13284;52.748;13.452;2022-07-29T07:19:20;19.70;99.90
25332;DHT22;13284;52.748;13.452;2022-07-29T07:21:45;20.00;99.90
25332;DHT22;13284;52.748;13.452;2022-07-29T07:24:11;20.10;99.90
25332;DHT22;13284;52.748;13.452;2022-07-29T07:26:36;20.40;99.90
25332;DHT22;13284;52.748;13.452;2022-07-29T07:29:03;20.80;99.90
25332;DHT22;13284;52.748;13.452;2022-07-29T07:31:28;21.10;99.90
25332;DHT22;13284;52.748;13.452;2022-07-29T07:33:54;21.20;99.90
25332;DHT22;13284;52.748;13.452;2022-07-29T07:36:20;21.30;99.90
25332;DHT22;13284;52.748;13.452;2022-07-29T07:38:46;21.40;99.90
25332;DHT22;13284;52.748;13.452;2022-07-29T07:41:11;21.60;99.90
25332;DHT22;13284;52.748;13.452;2022-07-29T07:43:37;21.60;99.90
25332;DHT22;13284;52.748;13.452;2022-07-29T07:46:03;21.80;99.90
25332;DHT22;13284;52.748;13.452;2022-07-29T07:48:28;21.90;99.90
25332;DHT22;13284;52.748;13.452;2022-07-29T07:50:54;22.10;99.90
25332;DHT22;13284;52.748;13.452;2022-07-29T07:53:19;22.30;99.90
25332;DHT22;13284;52.748;13.452;2022-07-29T07:55:45;22.40;99.90
25332;DHT22;13284;52.748;13.452;2022-07-29T07:58:11;22.20;99.90
25332;DHT22;13284;52.748;13.452;2022-07-29T08:00:37;22.50;99.90
25332;DHT22;13284;52.748;13.452;2022-07-29T08:03:03;22.50;99.90
25332;DHT22;13284;52.748;13.452;2022-07-29T08:05:28;22.80;99.90
25332;DHT22;13284;52.748;13.452;2022-07-29T08:07:54;22.90;99.90
25332;DHT22;13284;52.748;13.452;2022-07-29T08:10:20;23.20;99.90
25332;DHT22;13284;52.748;13.452;2022-07-29T08:13:06;23.20;99.90
25332;DHT22;13284;52.748;13.452;2022-07-29T08:15:32;23.30;99.90
25332;DHT22;13284;52.748;13.452;2022-07-29T08:17:58;23.70;99.90
25332;DHT22;13284;52.748;13.452;2022-07-29T08:20:24;24.10;99.90
25332;DHT22;13284;52.748;13.452;2022-07-29T08:22:49;24.60;99.90
25332;DHT22;13284;52.748;13.452;2022-07-29T08:25:15;25.50;99.90
25332;DHT22;13284;52.748;13.452;2022-07-29T08:27:41;26.00;99.90
25332;DHT22;13284;52.748;13.452;2022-07-29T08:30:07;26.30;99.90
25332;DHT22;13284;52.748;13.452;2022-07-29T08:32:32;26.20;99.90
25332;DHT22;13284;52.748;13.452;2022-07-29T08:34:58;26.50;99.90
25332;DHT22;13284;52.748;13.452;2022-07-29T08:37:23;26.40;99.90
25332;DHT22;13284;52.748;13.452;2022-07-29T08:39:49;26.40;99.90
25332;DHT22;13284;52.748;13.452;2022-07-29T08:42:15;26.40;99.90
25332;DHT22;13284;52.748;13.452;2022-07-29T08:44:42;26.80;99.90
25332;DHT22;13284;52.748;13.452;2022-07-29T08:47:08;27.30;99.90
25332;DHT22;13284;52.748;13.452;2022-07-29T08:49:34;27.50;99.90
25332;DHT22;13284;52.748;13.452;2022-07-29T08:52:01;27.60;99.90
25332;DHT22;13284;52.748;13.452;2022-07-29T08:54:27;27.70;99.90
25332;DHT22;13284;52.748;13.452;2022-07-29T08:56:54;28.30;99.90
25332;DHT22;13284;52.748;13.452;2022-07-29T08:59:22;28.50;99.90
25332;DHT22;13284;52.748;13.452;2022-07-29T09:01:48;28.90;99.90
25332;DHT22;13284;52.748;13.452;2022-07-29T09:04:17;29.00;99.90
25332;DHT22;13284;52.748;13.452;2022-07-29T09:06:46;28.70;99.00
25332;DHT22;13284;52.748;13.452;2022-07-29T09:09:12;28.60;98.50
25332;DHT22;13284;52.748;13.452;2022-07-29T09:11:39;28.30;99.10
25332;DHT22;13284;52.748;13.452;2022-07-29T09:14:05;28.60;98.80
25332;DHT22;13284;52.748;13.452;2022-07-29T09:16:49;28.80;97.30
25332;DHT22;13284;52.748;13.452;2022-07-29T09:19:20;29.00;96.90
25332;DHT22;13284;52.748;13.452;2022-07-29T09:21:46;29.50;97.30
25332;DHT22;13284;52.748;13.452;2022-07-29T09:24:26;29.40;95.60
25332;DHT22;13284;52.748;13.452;2022-07-29T09:26:51;29.60;95.90
25332;DHT22;13284;52.748;13.452;2022-07-29T09:29:19;30.00;94.40
25332;DHT22;13284;52.748;13.452;2022-07-29T09:31:50;30.40;93.70
25332;DHT22;13284;52.748;13.452;2022-07-29T09:34:23;30.00;92.60
25332;DHT22;13284;52.748;13.452;2022-07-29T09:36:51;30.10;91.70
25332;DHT22;13284;52.748;13.452;2022-07-29T09:39:30;30.30;91.20
25332;DHT22;13284;52.748;13.452;2022-07-29T09:41:58;30.30;90.80
25332;DHT22;13284;52.748;13.452;2022-07-29T09:44:24;29.80;90.10
25332;DHT22;13284;52.748;13.452;2022-07-29T09:47:01;30.50;89.50
25332;DHT22;13284;52.748;13.452;2022-07-29T09:49:34;30.70;88.60
25332;DHT22;13284;52.748;13.452;2022-07-29T09:52:06;29.90;86.30
25332;DHT22;13284;52.748;13.452;2022-07-29T09:54:32;29.80;86.10
25332;DHT22;13284;52.748;13.452;2022-07-29T09:57:08;29.00;87.30
25332;DHT22;13284;52.748;13.452;2022-07-29T09:59:38;28.50;88.00
25332;DHT22;13284;52.748;13.452;2022-07-29T10:02:14;28.30;89.10
25332;DHT22;13284;52.748;13.452;2022-07-29T10:04:41;28.50;89.10
25332;DHT22;13284;52.748;13.452;2022-07-29T10:07:07;28.90;88.20
25332;DHT22;13284;52.748;13.452;2022-07-29T10:09:34;28.70;87.50
25332;DHT22;13284;52.748;13.452;2022-07-29T10:14:33;28.20;88.20
25332;DHT22;13284;52.748;13.452;2022-07-29T10:17:00;28.10;87.60
25332;DHT22;13284;52.748;13.452;2022-07-29T10:19:30;28.10;87.90
25332;DHT22;13284;52.748;13.452;2022-07-29T10:21:57;28.80;88.20
25332;DHT22;13284;52.748;13.452;2022-07-29T10:24:25;29.50;88.70
25332;DHT22;13284;52.748;13.452;2022-07-29T10:26:53;29.30;82.90
25332;DHT22;13284;52.748;13.452;2022-07-29T10:29:19;29.50;81.70
25332;DHT22;13284;52.748;13.452;2022-07-29T10:40:10;30.80;77.80
25332;DHT22;13284;52.748;13.452;2022-07-29T10:43:09;30.80;75.70
25332;DHT22;13284;52.748;13.452;2022-07-29T10:45:40;31.10;77.00
25332;DHT22;13284;52.748;13.452;2022-07-29T10:48:05;31.30;75.90
25332;DHT22;13284;52.748;13.452;2022-07-29T10:50:53;31.70;77.20
25332;DHT22;13284;52.748;13.452;2022-07-29T10:53:20;31.70;75.10
25332;DHT22;13284;52.748;13.452;2022-07-29T10:55:46;31.80;75.60
25332;DHT22;13284;52.748;13.452;2022-07-29T10:58:23;32.30;75.60
25332;DHT22;13284;52.748;13.452;2022-07-29T11:00:53;31.70;75.10
25332;DHT22;13284;52.748;13.452;2022-07-29T11:03:47;31.60;73.60
25332;DHT22;13284;52.748;13.452;2022-07-29T11:06:13;31.30;74.20
25332;DHT22;13284;52.748;13.452;2022-07-29T11:08:39;31.20;74.70
25332;DHT22;13284;52.748;13.452;2022-07-29T11:13:46;30.90;75.40
25332;DHT22;13284;52.748;13.452;2022-07-29T11:16:13;30.00;75.60
25332;DHT22;13284;52.748;13.452;2022-07-29T11:21:38;29.70;75.20
25332;DHT22;13284;52.748;13.452;2022-07-29T11:24:17;29.70;74.80
25332;DHT22;13284;52.748;13.452;2022-07-29T11:26:43;29.80;75.80
25332;DHT22;13284;52.748;13.452;2022-07-29T11:29:21;30.60;76.00
25332;DHT22;13284;52.748;13.452;2022-07-29T11:31:51;30.80;75.50
25332;DHT22;13284;52.748;13.452;2022-07-29T11:34:28;31.40;75.80
25332;DHT22;13284;52.748;13.452;2022-07-29T11:39:37;32.20;73.40
25332;DHT22;13284;52.748;13.452;2022-07-29T11:45:02;31.70;74.50
25332;DHT22;13284;52.748;13.452;2022-07-29T11:47:31;32.30;73.00
25332;DHT22;13284;52.748;13.452;2022-07-29T11:49:59;32.50;73.40
25332;DHT22;13284;52.748;13.452;2022-07-29T11:52:44;31.80;72.00
25332;DHT22;13284;52.748;13.452;2022-07-29T11:55:17;31.20;73.00
25332;DHT22;13284;52.748;13.452;2022-07-29T11:57:52;30.80;74.70
25332;DHT22;13284;52.748;13.452;2022-07-29T12:00:38;31.10;73.20
25332;DHT22;13284;52.748;13.452;2022-07-29T12:03:07;32.10;73.40
25332;DHT22;13284;52.748;13.452;2022-07-29T12:05:41;33.20;71.50
25332;DHT22;13284;52.748;13.452;2022-07-29T12:08:18;33.60;70.80
25332;DHT22;13284;52.748;13.452;2022-07-29T12:10:46;33.40;69.30
25332;DHT22;13284;52.748;13.452;2022-07-29T12:13:13;34.10;70.30
25332;DHT22;13284;52.748;13.452;2022-07-29T12:15:40;34.50;69.10
25332;DHT22;13284;52.748;13.452;2022-07-29T12:18:17;33.50;69.00
25332;DHT22;13284;52.748;13.452;2022-07-29T12:20:44;32.60;70.30
25332;DHT22;13284;52.748;13.452;2022-07-29T12:23:10;31.80;72.20
25332;DHT22;13284;52.748;13.452;2022-07-29T12:25:41;32.20;72.50
25332;DHT22;13284;52.748;13.452;2022-07-29T12:28:12;31.20;72.70
25332;DHT22;13284;52.748;13.452;2022-07-29T12:30:42;30.30;74.70
25332;DHT22;13284;52.748;13.452;2022-07-29T12:33:28;30.90;76.00
25332;DHT22;13284;52.748;13.452;2022-07-29T12:35:58;31.70;75.00
25332;DHT22;13284;52.748;13.452;2022-07-29T12:38:24;31.40;75.10
25332;DHT22;13284;52.748;13.452;2022-07-29T12:40:52;31.00;74.90
25332;DHT22;13284;52.748;13.452;2022-07-29T12:43:22;31.00;75.30
25332;DHT22;13284;52.748;13.452;2022-07-29T12:45:51;30.70;76.70
25332;DHT22;13284;52.748;13.452;2022-07-29T12:48:35;30.30;75.60
25332;DHT22;13284;52.748;13.452;2022-07-29T12:51:03;30.20;76.20
25332;DHT22;13284;52.748;13.452;2022-07-29T12:53:29;30.20;76.40
25332;DHT22;13284;52.748;13.452;2022-07-29T12:55:56;29.80;77.00
25332;DHT22;13284;52.748;13.452;2022-07-29T12:58:31;30.30;77.90
25332;DHT22;13284;52.748;13.452;2022-07-29T13:01:01;31.00;78.50
25332;DHT22;13284;52.748;13.452;2022-07-29T13:03:28;32.20;76.20
25332;DHT22;13284;52.748;13.452;2022-07-29T13:05:54;32.60;73.50
25332;DHT22;13284;52.748;13.452;2022-07-29T13:08:20;33.10;72.40
25332;DHT22;13284;52.748;13.452;2022-07-29T13:10:45;32.90;72.40
25332;DHT22;13284;52.748;13.452;2022-07-29T13:13:13;32.60;72.60
25332;DHT22;13284;52.748;13.452;2022-07-29T13:15:45;31.90;72.70
25332;DHT22;13284;52.748;13.452;2022-07-29T13:18:29;31.10;75.00
25332;DHT22;13284;52.748;13.452;2022-07-29T13:20:54;30.60;75.40
25332;DHT22;13284;52.748;13.452;2022-07-29T13:23:20;30.20;76.40
25332;DHT22;13284;52.748;13.452;2022-07-29T13:25:46;30.10;77.30
25332;DHT22;13284;52.748;13.452;2022-07-29T13:28:12;30.00;77.60
25332;DHT22;13284;52.748;13.452;2022-07-29T13:30:39;30.10;78.60
25332;DHT22;13284;52.748;13.452;2022-07-29T13:33:05;30.90;78.70
25332;DHT22;13284;52.748;13.452;2022-07-29T13:35:30;30.80;78.20
25332;DHT22;13284;52.748;13.452;2022-07-29T13:37:56;30.80;78.10
25332;DHT22;13284;52.748;13.452;2022-07-29T13:40:22;30.60;79.60
25332;DHT22;13284;52.748;13.452;2022-07-29T13:42:47;30.80;79.20
25332;DHT22;13284;52.748;13.452;2022-07-29T13:45:13;30.20;78.80
25332;DHT22;13284;52.748;13.452;2022-07-29T13:47:39;29.80;79.60
25332;DHT22;13284;52.748;13.452;2022-07-29T13:50:06;29.70;80.70
25332;DHT22;13284;52.748;13.452;2022-07-29T13:52:32;29.60;81.40
25332;DHT22;13284;52.748;13.452;2022-07-29T13:54:58;29.90;81.00
25332;DHT22;13284;52.748;13.452;2022-07-29T13:57:24;29.50;80.10
25332;DHT22;13284;52.748;13.452;2022-07-29T13:59:49;29.20;80.80
25332;DHT22;13284;52.748;13.452;2022-07-29T14:02:16;29.00;81.30
25332;DHT22;13284;52.748;13.452;2022-07-29T14:04:42;29.10;81.60
25332;DHT22;13284;52.748;13.452;2022-07-29T14:07:08;28.80;81.80
25332;DHT22;13284;52.748;13.452;2022-07-29T14:09:35;28.80;82.60
25332;DHT22;13284;52.748;13.452;2022-07-29T14:12:06;28.90;83.10
25332;DHT22;13284;52.748;13.452;2022-07-29T14:14:34;29.10;82.70
25332;DHT22;13284;52.748;13.452;2022-07-29T14:17:02;29.50;82.10
25332;DHT22;13284;52.748;13.452;2022-07-29T14:19:28;29.70;82.70
25332;DHT22;13284;52.748;13.452;2022-07-29T14:21:53;29.60;82.30
25332;DHT22;13284;52.748;13.452;2022-07-29T14:24:19;29.70;82.40
25332;DHT22;13284;52.748;13.452;2022-07-29T14:26:44;29.70;81.60
25332;DHT22;13284;52.748;13.452;2022-07-29T14:29:10;29.50;82.00
25332;DHT22;13284;52.748;13.452;2022-07-29T14:31:35;29.30;81.70
25332;DHT22;13284;52.748;13.452;2022-07-29T14:34:01;29.50;81.70
25332;DHT22;13284;52.748;13.452;2022-07-29T14:36:26;29.60;82.00
25332;DHT22;13284;52.748;13.452;2022-07-29T14:38:52;29.80;81.50
25332;DHT22;13284;52.748;13.452;2022-07-29T14:41:18;30.00;81.90
25332;DHT22;13284;52.748;13.452;2022-07-29T14:43:43;30.30;80.90
25332;DHT22;13284;52.748;13.452;2022-07-29T14:46:09;30.50;80.70
25332;DHT22;13284;52.748;13.452;2022-07-29T14:48:34;30.40;79.30
25332;DHT22;13284;52.748;13.452;2022-07-29T14:51:00;30.40;79.70
25332;DHT22;13284;52.748;13.452;2022-07-29T14:53:25;30.20;79.50
25332;DHT22;13284;52.748;13.452;2022-07-29T14:55:51;30.00;80.40
25332;DHT22;13284;52.748;13.452;2022-07-29T14:58:17;30.00;80.10
25332;DHT22;13284;52.748;13.452;2022-07-29T15:00:42;29.60;79.80
25332;DHT22;13284;52.748;13.452;2022-07-29T15:03:08;29.50;80.50
25332;DHT22;13284;52.748;13.452;2022-07-29T15:05:35;29.30;80.50
25332;DHT22;13284;52.748;13.452;2022-07-29T15:08:01;29.50;81.50
25332;DHT22;13284;52.748;13.452;2022-07-29T15:10:26;29.40;80.60
25332;DHT22;13284;52.748;13.452;2022-07-29T15:12:52;29.10;80.90
25332;DHT22;13284;52.748;13.452;2022-07-29T15:15:18;28.80;81.60
25332;DHT22;13284;52.748;13.452;2022-07-29T15:17:43;28.70;82.40
25332;DHT22;13284;52.748;13.452;2022-07-29T15:20:10;28.70;82.30
25332;DHT22;13284;52.748;13.452;2022-07-29T15:22:37;28.80;82.20
25332;DHT22;13284;52.748;13.452;2022-07-29T15:25:04;29.00;81.90
25332;DHT22;13284;52.748;13.452;2022-07-29T15:27:29;29.10;81.80
25332;DHT22;13284;52.748;13.452;2022-07-29T15:29:55;29.10;80.80
25332;DHT22;13284;52.748;13.452;2022-07-29T15:32:20;29.30;81.40
25332;DHT22;13284;52.748;13.452;2022-07-29T15:34:46;29.30;80.50
25332;DHT22;13284;52.748;13.452;2022-07-29T15:37:12;29.10;81.60
25332;DHT22;13284;52.748;13.452;2022-07-29T15:39:37;29.00;81.50
25332;DHT22;13284;52.748;13.452;2022-07-29T15:42:03;29.00;81.20
25332;DHT22;13284;52.748;13.452;2022-07-29T15:44:29;29.10;82.20
25332;DHT22;13284;52.748;13.452;2022-07-29T15:46:54;29.10;82.20
25332;DHT22;13284;52.748;13.452;2022-07-29T15:49:40;29.20;82.10
25332;DHT22;13284;52.748;13.452;2022-07-29T15:52:07;29.20;81.70
25332;DHT22;13284;52.748;13.452;2022-07-29T15:54:35;29.00;81.10